createdAt,value
2023-05-05T00:01:53.713Z,100.00
2023-05-05T00:04:22.885Z,100.00
2023-05-05T00:06:50.851Z,100.00
2023-05-05T00:09:18.406Z,100.00
2023-05-05T00:11:45.453Z,100.00
2023-05-05T00:14:13.561Z,100.00
2023-05-05T00:16:40.588Z,100.00
2023-05-05T00:19:08.180Z,100.00
2023-05-05T00:21:35.143Z,100.00
2023-05-05T00:24:02.139Z,100.00
2023-05-05T00:26:29.088Z,100.00
2023-05-05T00:28:56.322Z,100.00
2023-05-05T00:31:24.047Z,100.00
2023-05-05T00:33:51.242Z,100.00
2023-05-05T00:36:18.720Z,100.00
2023-05-05T00:38:45.712Z,100.00
2023-05-05T00:41:12.814Z,100.00
2023-05-05T00:43:39.719Z,100.00
2023-05-05T00:46:14.826Z,100.00
2023-05-05T00:48:42.053Z,100.00
2023-05-05T00:51:10.552Z,100.00
2023-05-05T00:53:39.948Z,100.00
2023-05-05T00:56:08.052Z,100.00
2023-05-05T00:58:36.846Z,100.00
2023-05-05T01:01:03.753Z,100.00
2023-05-05T01:03:30.913Z,100.00
2023-05-05T01:06:16.758Z,100.00
2023-05-05T01:09:17.685Z,100.00
2023-05-05T01:12:15.526Z,100.00
2023-05-05T01:14:47.534Z,100.00
2023-05-05T01:17:19.010Z,100.00
2023-05-05T01:20:18.265Z,100.00
2023-05-05T01:22:53.430Z,100.00
2023-05-05T01:25:41.743Z,100.00
2023-05-05T01:28:28.761Z,100.00
2023-05-05T01:31:14.964Z,100.00
2023-05-05T01:33:49.850Z,100.00
2023-05-05T01:36:23.725Z,100.00
2023-05-05T01:38:57.344Z,100.00
2023-05-05T01:41:41.394Z,100.00
2023-05-05T01:44:11.065Z,100.00
2023-05-05T01:46:38.249Z,100.00
2023-05-05T01:49:08.715Z,100.00
2023-05-05T01:51:37.212Z,100.00
2023-05-05T01:54:09.053Z,100.00
2023-05-05T01:56:40.466Z,100.00
2023-05-05T01:59:09.074Z,100.00
2023-05-05T02:01:41.159Z,100.00
2023-05-05T02:04:10.091Z,100.00
2023-05-05T02:06:40.055Z,100.00
2023-05-05T02:09:08.636Z,100.00
2023-05-05T02:11:35.896Z,100.00
2023-05-05T02:14:03.528Z,100.00
2023-05-05T02:16:31.431Z,100.00
2023-05-05T02:19:04.869Z,100.00
2023-05-05T02:21:32.899Z,100.00
2023-05-05T02:24:00.331Z,100.00
2023-05-05T02:26:30.496Z,100.00
2023-05-05T02:29:08.103Z,100.00
2023-05-05T02:31:44.414Z,100.00
2023-05-05T02:34:16.484Z,100.00
2023-05-05T02:36:44.913Z,100.00
2023-05-05T02:39:22.168Z,100.00
2023-05-05T02:41:51.495Z,100.00
2023-05-05T02:44:28.043Z,100.00
2023-05-05T02:46:56.680Z,100.00
2023-05-05T02:49:24.542Z,100.00
2023-05-05T02:51:58.295Z,100.00
2023-05-05T02:54:29.340Z,100.00
2023-05-05T02:56:58.011Z,100.00
2023-05-05T02:59:53.137Z,100.00
2023-05-05T03:02:39.160Z,100.00
2023-05-05T03:05:21.564Z,100.00
2023-05-05T03:08:00.483Z,100.00
2023-05-05T03:10:31.383Z,100.00
2023-05-05T03:13:03.023Z,100.00
2023-05-05T03:15:45.067Z,100.00
2023-05-05T03:18:15.796Z,100.00
2023-05-05T03:20:46.862Z,100.00
2023-05-05T03:23:18.562Z,100.00
2023-05-05T03:25:47.254Z,100.00
2023-05-05T03:28:35.505Z,100.00
2023-05-05T03:31:08.828Z,100.00
2023-05-05T03:33:37.871Z,100.00
2023-05-05T03:36:05.000Z,100.00
2023-05-05T03:38:32.581Z,100.00
2023-05-05T03:41:26.059Z,100.00
2023-05-05T03:43:53.769Z,100.00
2023-05-05T03:46:20.847Z,100.00
2023-05-05T03:48:48.853Z,100.00
2023-05-05T03:51:15.951Z,100.00
2023-05-05T03:53:43.044Z,100.00
2023-05-05T03:56:10.743Z,100.00
2023-05-05T03:58:37.723Z,100.00
2023-05-05T04:01:05.234Z,100.00
2023-05-05T04:03:32.329Z,100.00
2023-05-05T04:05:59.548Z,100.00
2023-05-05T04:08:26.744Z,100.00
2023-05-05T04:10:53.687Z,100.00
2023-05-05T04:13:21.251Z,100.00
2023-05-05T04:15:48.753Z,100.00
2023-05-05T04:18:17.224Z,100.00
2023-05-05T04:20:44.557Z,100.00
2023-05-05T04:23:12.205Z,100.00
2023-05-05T04:25:39.780Z,100.00
2023-05-05T04:28:06.769Z,100.00
2023-05-05T04:30:33.660Z,100.00
2023-05-05T04:33:01.139Z,100.00
2023-05-05T04:35:28.479Z,100.00
2023-05-05T04:37:55.821Z,100.00
2023-05-05T04:40:23.199Z,100.00
2023-05-05T04:42:51.219Z,100.00
2023-05-05T04:45:18.306Z,100.00
2023-05-05T04:47:45.812Z,100.00
2023-05-05T04:50:12.936Z,100.00
2023-05-05T04:52:40.448Z,100.00
2023-05-05T04:55:09.737Z,100.00
2023-05-05T04:57:36.828Z,100.00
2023-05-05T05:00:06.553Z,100.00
2023-05-05T05:02:33.890Z,100.00
2023-05-05T05:05:01.182Z,100.00
2023-05-05T05:07:28.181Z,100.00
2023-05-05T05:09:55.235Z,100.00
2023-05-05T05:12:22.416Z,100.00
2023-05-05T05:14:50.553Z,100.00
2023-05-05T05:17:17.945Z,100.00
2023-05-05T05:19:45.029Z,100.00
2023-05-05T05:22:12.215Z,100.00
2023-05-05T05:24:41.113Z,100.00
2023-05-05T05:27:10.339Z,100.00
2023-05-05T05:29:39.958Z,100.00
2023-05-05T05:32:07.175Z,100.00
2023-05-05T05:34:34.463Z,100.00
2023-05-05T05:37:02.567Z,100.00
2023-05-05T05:39:29.589Z,100.00
2023-05-05T05:41:56.798Z,100.00
2023-05-05T05:44:23.894Z,100.00
2023-05-05T05:46:51.258Z,100.00
2023-05-05T05:49:18.299Z,100.00
2023-05-05T05:51:45.801Z,100.00
2023-05-05T05:54:12.822Z,100.00
2023-05-05T05:56:41.106Z,100.00
2023-05-05T05:59:10.278Z,100.00
2023-05-05T06:01:40.611Z,100.00
2023-05-05T06:04:08.270Z,100.00
2023-05-05T06:06:35.626Z,100.00
2023-05-05T06:09:02.756Z,100.00
2023-05-05T06:11:31.915Z,100.00
2023-05-05T06:13:59.948Z,100.00
2023-05-05T06:16:27.055Z,100.00
2023-05-05T06:18:54.583Z,100.00
2023-05-05T06:21:21.634Z,100.00
2023-05-05T06:23:48.682Z,100.00
2023-05-05T06:26:16.124Z,100.00
2023-05-05T06:28:43.300Z,100.00
2023-05-05T06:31:10.317Z,100.00
2023-05-05T06:33:37.337Z,100.00
2023-05-05T06:36:04.560Z,100.00
2023-05-05T06:38:31.672Z,100.00
2023-05-05T06:40:58.864Z,100.00
2023-05-05T06:43:26.006Z,100.00
2023-05-05T06:45:57.617Z,100.00
2023-05-05T06:48:24.686Z,100.00
2023-05-05T06:50:51.680Z,100.00
2023-05-05T06:53:18.626Z,100.00
2023-05-05T06:55:47.333Z,100.00
2023-05-05T06:58:14.274Z,100.00
2023-05-05T07:00:41.756Z,100.00
2023-05-05T07:03:08.818Z,100.00
2023-05-05T07:05:35.860Z,100.00
2023-05-05T07:08:02.840Z,100.00
2023-05-05T07:10:29.826Z,100.00
2023-05-05T07:12:56.901Z,100.00
2023-05-05T07:15:29.413Z,100.00
2023-05-05T07:17:57.499Z,100.00
2023-05-05T07:20:24.804Z,100.00
2023-05-05T07:22:51.843Z,100.00
2023-05-05T07:25:18.937Z,100.00
2023-05-05T07:27:46.127Z,100.00
2023-05-05T07:30:17.362Z,100.00
2023-05-05T07:32:45.256Z,100.00
2023-05-05T07:35:19.096Z,100.00
2023-05-05T07:37:46.599Z,100.00
2023-05-05T07:40:13.676Z,100.00
2023-05-05T07:42:40.700Z,100.00
2023-05-05T07:45:08.426Z,100.00
2023-05-05T07:47:35.744Z,100.00
2023-05-05T07:50:02.744Z,100.00
2023-05-05T07:52:44.127Z,100.00
2023-05-05T07:55:13.462Z,100.00
2023-05-05T07:57:40.558Z,100.00
2023-05-05T08:00:08.489Z,100.00
2023-05-05T08:02:41.965Z,100.00
2023-05-05T08:05:09.756Z,100.00
2023-05-05T08:07:41.475Z,100.00
2023-05-05T08:10:12.430Z,100.00
2023-05-05T08:12:40.035Z,100.00
2023-05-05T08:15:07.928Z,100.00
2023-05-05T08:17:49.251Z,96.87
2023-05-05T08:20:18.611Z,98.32
2023-05-05T08:22:46.401Z,95.66
2023-05-05T08:25:14.474Z,97.91
2023-05-05T08:27:43.042Z,100.00
2023-05-05T08:30:10.664Z,100.00
2023-05-05T08:32:38.654Z,99.12
2023-05-05T08:35:07.056Z,97.39
2023-05-05T08:37:34.970Z,97.28
2023-05-05T08:40:02.023Z,96.19
2023-05-05T08:42:38.212Z,95.81
2023-05-05T08:45:08.790Z,90.67
2023-05-05T08:47:37.206Z,94.50
2023-05-05T08:50:06.178Z,92.26
2023-05-05T08:52:45.555Z,92.12
2023-05-05T08:55:24.432Z,94.43
2023-05-05T08:57:54.834Z,89.58
2023-05-05T09:00:22.685Z,89.75
2023-05-05T09:02:50.268Z,91.16
2023-05-05T09:05:18.135Z,89.31
2023-05-05T09:07:46.992Z,84.01
2023-05-05T09:10:13.983Z,86.36
2023-05-05T09:12:42.713Z,86.91
2023-05-05T09:15:11.895Z,88.40
2023-05-05T09:17:40.032Z,88.83
2023-05-05T09:20:08.695Z,92.94
2023-05-05T09:22:39.864Z,91.33
2023-05-05T09:25:10.053Z,87.92
2023-05-05T09:27:39.040Z,87.64
2023-05-05T09:30:07.086Z,89.00
2023-05-05T09:32:47.808Z,88.50
2023-05-05T09:35:16.447Z,89.94
2023-05-05T09:37:43.958Z,88.88
2023-05-05T09:40:19.639Z,90.52
2023-05-05T09:42:46.933Z,88.94
2023-05-05T09:45:20.088Z,89.97
2023-05-05T09:47:48.394Z,91.11
2023-05-05T09:50:19.174Z,88.87
2023-05-05T09:53:01.015Z,92.06
2023-05-05T09:55:28.747Z,93.80
2023-05-05T09:57:56.022Z,89.06
2023-05-05T10:00:30.663Z,90.39
2023-05-05T10:03:03.294Z,89.47
2023-05-05T10:05:30.604Z,88.86
2023-05-05T10:08:13.491Z,88.25
2023-05-05T10:10:51.719Z,85.52
2023-05-05T10:13:21.017Z,81.92
2023-05-05T10:15:51.411Z,85.81
2023-05-05T10:18:24.473Z,85.19
2023-05-05T10:20:58.029Z,86.90
2023-05-05T10:23:32.483Z,84.78
2023-05-05T10:26:05.848Z,83.25
2023-05-05T10:28:44.126Z,85.22
2023-05-05T10:31:29.754Z,86.39
2023-05-05T10:34:02.818Z,77.62
2023-05-05T10:36:32.031Z,78.30
2023-05-05T10:39:00.426Z,76.61
2023-05-05T10:41:28.846Z,77.46
2023-05-05T10:43:57.756Z,73.96
2023-05-05T10:46:27.051Z,72.58
2023-05-05T10:49:17.910Z,68.32
2023-05-05T10:51:56.996Z,64.84
2023-05-05T10:54:32.966Z,71.59
2023-05-05T10:57:05.075Z,73.28
2023-05-05T10:59:38.386Z,73.33
2023-05-05T11:02:17.907Z,74.59
2023-05-05T11:05:03.227Z,67.52
2023-05-05T11:07:30.253Z,62.52
2023-05-05T11:10:05.522Z,66.88
2023-05-05T11:12:53.720Z,66.75
2023-05-05T11:15:26.607Z,66.19
2023-05-05T11:18:01.921Z,68.46
2023-05-05T11:20:40.010Z,69.23
2023-05-05T11:23:07.154Z,66.82
2023-05-05T11:25:41.228Z,68.60
2023-05-05T11:28:21.194Z,68.25
2023-05-05T11:31:18.220Z,67.99
2023-05-05T11:33:45.439Z,69.43
2023-05-05T11:36:18.084Z,71.76
2023-05-05T11:39:19.565Z,68.32
2023-05-05T11:44:21.112Z,67.76
2023-05-05T11:46:51.164Z,71.49
2023-05-05T11:49:33.360Z,63.53
2023-05-05T11:52:09.518Z,63.89
2023-05-05T11:54:50.807Z,60.41
2023-05-05T11:57:21.889Z,56.75
2023-05-05T11:59:54.942Z,58.16
2023-05-05T12:02:22.544Z,61.12
2023-05-05T12:04:50.193Z,62.00
2023-05-05T12:07:18.672Z,58.57
2023-05-05T12:09:47.412Z,59.30
2023-05-05T12:12:15.486Z,56.53
2023-05-05T12:14:53.151Z,54.78
2023-05-05T12:17:21.281Z,55.70
2023-05-05T12:19:51.052Z,54.35
2023-05-05T12:22:22.568Z,54.07
2023-05-05T12:24:59.944Z,55.06
2023-05-05T12:27:28.400Z,53.42
2023-05-05T12:29:56.998Z,54.49
2023-05-05T12:32:26.403Z,52.30
2023-05-05T12:34:57.748Z,50.83
2023-05-05T12:37:26.486Z,50.44
2023-05-05T12:39:56.645Z,53.36
2023-05-05T12:42:23.702Z,53.41
2023-05-05T12:44:50.877Z,51.76
2023-05-05T12:47:31.960Z,52.58
2023-05-05T12:50:00.790Z,54.03
2023-05-05T12:52:45.027Z,54.71
2023-05-05T12:55:13.067Z,54.52
2023-05-05T12:58:00.644Z,56.60
2023-05-05T13:00:27.818Z,52.88
2023-05-05T13:02:54.943Z,52.40
2023-05-05T13:05:36.736Z,53.88
2023-05-05T13:08:03.818Z,50.07
2023-05-05T13:10:31.589Z,50.55
2023-05-05T13:12:58.809Z,50.51
2023-05-05T13:15:26.391Z,52.80
2023-05-05T13:18:03.074Z,51.17
2023-05-05T13:20:30.096Z,49.26
2023-05-05T13:22:57.527Z,49.45
2023-05-05T13:25:24.595Z,53.84
2023-05-05T13:27:51.638Z,49.69
2023-05-05T13:30:18.583Z,44.68
2023-05-05T13:32:45.602Z,44.61
2023-05-05T13:35:14.763Z,45.36
2023-05-05T13:37:44.536Z,47.50
2023-05-05T13:40:13.574Z,47.45
2023-05-05T13:42:40.569Z,48.19
2023-05-05T13:45:08.045Z,47.44
2023-05-05T13:47:35.305Z,50.10
2023-05-05T13:50:02.524Z,45.93
2023-05-05T13:52:31.108Z,47.10
2023-05-05T13:54:59.116Z,46.93
2023-05-05T13:57:26.705Z,45.91
2023-05-05T13:59:53.737Z,45.67
2023-05-05T14:02:20.771Z,46.16
2023-05-05T14:04:47.697Z,44.68
2023-05-05T14:07:14.839Z,45.54
2023-05-05T14:09:41.987Z,47.07
2023-05-05T14:12:09.004Z,44.63
2023-05-05T14:14:36.335Z,46.20
2023-05-05T14:17:03.425Z,45.30
2023-05-05T14:19:30.385Z,45.88
2023-05-05T14:21:57.815Z,43.98
2023-05-05T14:24:24.816Z,44.60
2023-05-05T14:26:51.775Z,42.52
2023-05-05T14:29:18.822Z,42.67
2023-05-05T14:31:45.802Z,41.02
2023-05-05T14:34:13.006Z,40.71
2023-05-05T14:36:39.885Z,39.82
2023-05-05T14:39:07.205Z,40.83
2023-05-05T14:41:34.080Z,41.94
2023-05-05T14:44:01.071Z,41.46
2023-05-05T14:46:28.280Z,41.55
2023-05-05T14:48:55.355Z,42.60
2023-05-05T14:51:22.403Z,44.65
2023-05-05T14:53:49.440Z,46.19
2023-05-05T14:56:17.246Z,46.24
2023-05-05T14:58:44.277Z,44.42
2023-05-05T15:01:11.385Z,45.56
2023-05-05T15:03:38.498Z,45.01
2023-05-05T15:06:06.046Z,43.64
2023-05-05T15:08:33.123Z,43.46
2023-05-05T15:11:00.028Z,43.65
2023-05-05T15:13:26.998Z,46.50
2023-05-05T15:15:53.943Z,47.66
2023-05-05T15:18:21.117Z,44.42
2023-05-05T15:20:48.116Z,41.65
2023-05-05T15:23:15.585Z,39.07
2023-05-05T15:25:42.576Z,36.57
2023-05-05T15:28:09.520Z,31.89
2023-05-05T15:30:36.661Z,32.33
2023-05-05T15:33:03.858Z,30.96
2023-05-05T15:35:31.038Z,31.71
2023-05-05T15:37:58.013Z,32.13
2023-05-05T15:40:25.138Z,33.28
2023-05-05T15:42:52.160Z,33.51
2023-05-05T15:45:19.320Z,33.05
2023-05-05T15:47:46.510Z,30.99
2023-05-05T15:50:13.934Z,31.89
2023-05-05T15:52:40.946Z,31.47
2023-05-05T15:55:08.877Z,30.44
2023-05-05T15:57:36.207Z,29.39
2023-05-05T16:00:03.401Z,28.36
2023-05-05T16:02:34.694Z,29.96
2023-05-05T16:05:01.772Z,30.78
2023-05-05T16:07:28.694Z,30.46
2023-05-05T16:09:56.988Z,30.18
2023-05-05T16:12:24.009Z,29.57
2023-05-05T16:14:51.000Z,28.04
2023-05-05T16:17:17.901Z,28.64
2023-05-05T16:19:44.994Z,29.62
2023-05-05T16:22:12.135Z,29.63
2023-05-05T16:24:39.408Z,28.88
2023-05-05T16:27:06.445Z,28.68
2023-05-05T16:29:33.458Z,30.02
2023-05-05T16:32:00.828Z,31.48
2023-05-05T16:34:27.876Z,30.63
2023-05-05T16:36:54.787Z,30.03
2023-05-05T16:39:21.863Z,29.99
2023-05-05T16:41:48.809Z,30.73
2023-05-05T16:44:16.060Z,29.96
2023-05-05T16:46:43.099Z,29.58
2023-05-05T16:49:10.151Z,29.06
2023-05-05T16:51:37.137Z,29.13
2023-05-05T16:54:04.285Z,29.81
2023-05-05T16:56:31.197Z,28.77
2023-05-05T16:58:58.280Z,27.84
2023-05-05T17:01:25.288Z,27.34
2023-05-05T17:03:52.297Z,27.19
2023-05-05T17:06:19.377Z,28.29
2023-05-05T17:08:46.301Z,28.64
2023-05-05T17:11:13.344Z,29.26
2023-05-05T17:13:40.369Z,29.29
2023-05-05T17:16:07.357Z,27.83
2023-05-05T17:18:34.442Z,30.03
2023-05-05T17:21:01.417Z,32.69
2023-05-05T17:23:28.355Z,35.86
2023-05-05T17:25:55.308Z,38.66
2023-05-05T17:28:22.671Z,41.60
2023-05-05T17:30:49.526Z,43.98
2023-05-05T17:33:20.983Z,46.76
2023-05-05T17:35:48.644Z,48.78
2023-05-05T17:38:15.840Z,49.14
2023-05-05T17:40:43.346Z,52.16
2023-05-05T17:43:10.495Z,53.97
2023-05-05T17:45:37.522Z,55.54
2023-05-05T17:48:04.757Z,56.23
2023-05-05T17:50:31.752Z,56.98
2023-05-05T17:52:58.715Z,57.66
2023-05-05T17:55:25.988Z,59.10
2023-05-05T17:57:53.013Z,61.25
2023-05-05T18:00:20.909Z,63.86
2023-05-05T18:02:53.051Z,65.43
2023-05-05T18:05:20.843Z,66.17
2023-05-05T18:07:47.756Z,68.75
2023-05-05T18:10:14.820Z,67.72
2023-05-05T18:12:41.901Z,68.30
2023-05-05T18:15:09.541Z,69.63
2023-05-05T18:17:36.627Z,70.83
2023-05-05T18:20:06.896Z,71.61
2023-05-05T18:22:34.374Z,71.38
2023-05-05T18:25:01.275Z,71.05
2023-05-05T18:27:28.947Z,71.46
2023-05-05T18:29:55.912Z,71.85
2023-05-05T18:32:24.046Z,75.53
2023-05-05T18:34:50.987Z,77.32
2023-05-05T18:37:17.963Z,77.75
2023-05-05T18:39:45.420Z,78.86
2023-05-05T18:42:13.231Z,80.09
2023-05-05T18:44:40.192Z,80.99
2023-05-05T18:47:08.016Z,82.73
2023-05-05T18:49:35.165Z,82.56
2023-05-05T18:52:02.062Z,83.99
2023-05-05T18:54:29.176Z,84.56
2023-05-05T18:56:56.320Z,85.85
2023-05-05T18:59:23.262Z,86.77
2023-05-05T19:01:50.291Z,87.11
2023-05-05T19:04:30.245Z,87.17
2023-05-05T19:06:58.192Z,86.99
2023-05-05T19:09:25.190Z,88.31
2023-05-05T19:11:53.293Z,89.05
2023-05-05T19:14:20.368Z,88.65
2023-05-05T19:16:47.334Z,88.74
2023-05-05T19:19:14.615Z,89.94
2023-05-05T19:21:41.655Z,90.09
2023-05-05T19:24:09.238Z,90.98
2023-05-05T19:26:36.261Z,91.22
2023-05-05T19:29:03.515Z,91.64
2023-05-05T19:31:31.453Z,93.46
2023-05-05T19:34:01.592Z,94.12
2023-05-05T19:36:29.164Z,95.89
2023-05-05T19:38:56.169Z,96.31
2023-05-05T19:41:23.419Z,96.26
2023-05-05T19:43:50.350Z,96.41
2023-05-05T19:46:17.487Z,97.81
2023-05-05T19:48:44.580Z,97.77
2023-05-05T19:51:11.658Z,96.61
2023-05-05T19:53:40.331Z,95.58
2023-05-05T19:56:07.694Z,96.19
2023-05-05T19:58:53.402Z,96.34
2023-05-05T20:01:20.474Z,97.62
2023-05-05T20:03:51.343Z,98.17
2023-05-05T20:06:18.451Z,98.95
2023-05-05T20:08:45.566Z,100.00
2023-05-05T20:11:14.297Z,100.00
2023-05-05T20:13:41.748Z,100.00
2023-05-05T20:16:09.163Z,100.00
2023-05-05T20:18:38.088Z,100.00
2023-05-05T20:21:05.269Z,100.00
2023-05-05T20:23:32.326Z,100.00
2023-05-05T20:25:59.405Z,100.00
2023-05-05T20:28:27.106Z,100.00
2023-05-05T20:30:54.321Z,100.00
2023-05-05T20:33:21.286Z,100.00
2023-05-05T20:35:48.355Z,100.00
2023-05-05T20:38:15.232Z,100.00
2023-05-05T20:40:42.352Z,100.00
2023-05-05T20:43:09.291Z,100.00
2023-05-05T20:45:37.383Z,100.00
2023-05-05T20:48:05.732Z,100.00
2023-05-05T20:50:33.089Z,100.00
2023-05-05T20:53:02.666Z,100.00
2023-05-05T20:55:29.724Z,100.00
2023-05-05T20:57:56.697Z,100.00
2023-05-05T21:00:26.525Z,100.00
2023-05-05T21:02:53.814Z,100.00
2023-05-05T21:05:21.189Z,100.00
2023-05-05T21:07:48.094Z,100.00
2023-05-05T21:10:15.063Z,100.00
2023-05-05T21:12:42.056Z,100.00
2023-05-05T21:15:09.965Z,100.00
2023-05-05T21:17:37.358Z,100.00
2023-05-05T21:20:04.665Z,100.00
2023-05-05T21:22:31.824Z,100.00
2023-05-05T21:25:17.505Z,100.00
2023-05-05T21:27:45.741Z,100.00
2023-05-05T21:30:13.188Z,100.00
2023-05-05T21:32:41.166Z,100.00
2023-05-05T21:35:09.430Z,100.00
2023-05-05T21:37:39.813Z,100.00
2023-05-05T21:40:11.266Z,100.00
2023-05-05T21:42:38.485Z,100.00
2023-05-05T21:45:05.761Z,100.00
2023-05-05T21:47:32.795Z,100.00
2023-05-05T21:49:59.791Z,100.00
2023-05-05T21:52:26.825Z,100.00
2023-05-05T21:54:53.778Z,100.00
2023-05-05T21:57:20.886Z,100.00
2023-05-05T21:59:47.855Z,100.00
2023-05-05T22:02:14.873Z,100.00
2023-05-05T22:04:41.776Z,100.00
2023-05-05T22:07:08.693Z,100.00
2023-05-05T22:09:35.915Z,100.00
2023-05-05T22:12:03.063Z,100.00
2023-05-05T22:14:30.293Z,100.00
2023-05-05T22:16:57.284Z,100.00
2023-05-05T22:19:24.264Z,100.00
2023-05-05T22:21:51.248Z,100.00
2023-05-05T22:24:18.182Z,100.00
2023-05-05T22:26:45.257Z,100.00
2023-05-05T22:29:12.338Z,100.00
2023-05-05T22:31:39.968Z,100.00
2023-05-05T22:34:07.263Z,100.00
2023-05-05T22:36:34.226Z,100.00
2023-05-05T22:39:01.261Z,100.00
2023-05-05T22:41:28.386Z,100.00
2023-05-05T22:44:03.358Z,100.00
2023-05-05T22:46:30.451Z,100.00
2023-05-05T22:48:57.402Z,100.00
2023-05-05T22:51:24.342Z,100.00
2023-05-05T22:53:51.353Z,100.00
2023-05-05T22:56:18.326Z,100.00
2023-05-05T22:58:46.766Z,100.00
2023-05-05T23:01:13.905Z,100.00
2023-05-05T23:03:41.718Z,100.00
2023-05-05T23:06:08.790Z,100.00
2023-05-05T23:08:35.790Z,100.00
2023-05-05T23:11:02.794Z,100.00
2023-05-05T23:13:31.055Z,100.00
2023-05-05T23:15:58.017Z,100.00
2023-05-05T23:18:24.992Z,100.00
2023-05-05T23:20:52.074Z,100.00
2023-05-05T23:23:18.951Z,100.00
2023-05-05T23:25:45.947Z,100.00
2023-05-05T23:28:12.989Z,100.00
2023-05-05T23:30:40.056Z,100.00
2023-05-05T23:33:07.067Z,100.00
2023-05-05T23:35:34.520Z,100.00
2023-05-05T23:38:01.568Z,100.00
2023-05-05T23:40:28.522Z,100.00
2023-05-05T23:42:55.465Z,100.00
2023-05-05T23:45:22.428Z,100.00
2023-05-05T23:47:49.760Z,100.00
2023-05-05T23:50:16.772Z,100.00
2023-05-05T23:52:43.682Z,100.00
2023-05-05T23:55:10.863Z,100.00
2023-05-05T23:57:38.127Z,100.00
